Time;durP1;ratioP1;P1;durP2;ratioP2;P2;SDS_P1;SDS_P2;PMS_P1;PMS_P2;Temp;Humidity;BMP_temperature;BMP_pressure;BME280_temperature;BME280_humidity;BME280_pressure;Samples;Min_cycle;Max_cycle;Signal;HPM_P1;HPM_P2
2021/08/27 00:02:26;;;;;;;0.60;0.30;;;12.80;99.90;;;;;;5034929;28;20478;-83
2021/08/27 00:04:53;;;;;;;0.40;0.40;;;12.90;99.90;;;;;;5035093;28;20435;-83
2021/08/27 00:07:19;;;;;;;1.43;0.53;;;12.90;99.90;;;;;;5034849;28;20489;-83
2021/08/27 00:09:46;;;;;;;0.70;0.37;;;13.00;99.90;;;;;;5034689;28;20434;-84
2021/08/27 00:12:13;;;;;;;0.30;0.30;;;13.00;99.90;;;;;;5034653;28;20458;-83
2021/08/27 00:14:40;;;;;;;0.50;0.30;;;13.00;99.90;;;;;;5034532;28;20566;-84
2021/08/27 00:17:06;;;;;;;0.67;0.40;;;13.00;99.90;;;;;;5034750;28;20450;-83
2021/08/27 00:19:35;;;;;;;1.33;0.40;;;13.00;99.90;;;;;;5034754;28;20458;-83
2021/08/27 00:22:01;;;;;;;0.60;0.40;;;13.00;99.90;;;;;;5034611;28;20452;-83
2021/08/27 00:24:28;;;;;;;0.70;0.47;;;13.00;99.90;;;;;;5034606;28;20451;-83
2021/08/27 00:26:55;;;;;;;1.80;0.47;;;13.00;99.90;;;;;;5034500;28;20471;-84
2021/08/27 00:29:21;;;;;;;0.60;0.50;;;13.00;99.90;;;;;;5034163;28;20981;-83
2021/08/27 00:31:48;;;;;;;4.93;0.90;;;13.00;99.90;;;;;;5034435;28;20473;-83
2021/08/27 00:34:15;;;;;;;0.50;0.40;;;12.90;99.90;;;;;;5034351;28;20478;-83
2021/08/27 00:36:43;;;;;;;0.40;0.33;;;12.90;99.90;;;;;;5034057;28;20989;-83
2021/08/27 00:39:10;;;;;;;0.50;0.40;;;12.90;99.90;;;;;;5033894;28;20935;-83
2021/08/27 00:41:37;;;;;;;1.13;0.47;;;13.00;99.90;;;;;;5034286;28;20443;-83
2021/08/27 00:44:04;;;;;;;0.40;0.40;;;13.00;99.90;;;;;;5034094;28;20462;-83
2021/08/27 00:46:30;;;;;;;1.60;0.30;;;13.00;99.90;;;;;;5034304;28;20446;-83
2021/08/27 00:48:57;;;;;;;0.50;0.40;;;13.00;99.90;;;;;;5033846;28;20457;-83
2021/08/27 00:51:24;;;;;;;0.40;0.37;;;13.00;99.90;;;;;;5034080;28;20442;-83
2021/08/27 00:53:52;;;;;;;1.07;0.40;;;13.10;99.90;;;;;;5034154;28;20473;-83
2021/08/27 00:56:19;;;;;;;1.50;0.53;;;13.10;99.90;;;;;;5033966;28;20449;-83
2021/08/27 00:58:46;;;;;;;0.37;0.37;;;13.10;99.90;;;;;;5033711;28;20832;-83
2021/08/27 01:01:13;;;;;;;0.50;0.50;;;13.10;99.90;;;;;;5033913;28;20459;-83
2021/08/27 01:03:40;;;;;;;0.50;0.50;;;13.20;99.90;;;;;;5033505;28;20521;-83
2021/08/27 01:06:14;;;;;;;1.07;0.90;;;13.20;99.90;;;;;;5034137;28;20423;-83
2021/08/27 01:08:52;;;;;;;0.40;0.30;;;13.20;99.90;;;;;;5033716;28;20471;-83
2021/08/27 01:11:25;;;;;;;1.43;0.47;;;13.20;99.90;;;;;;5033842;28;20525;-83
2021/08/27 01:13:58;;;;;;;0.90;0.50;;;13.20;99.90;;;;;;5033416;28;20490;-83
2021/08/27 01:16:28;;;;;;;0.40;0.30;;;13.20;99.90;;;;;;5033889;28;20439;-84
2021/08/27 01:19:04;;;;;;;0.80;0.50;;;13.20;99.90;;;;;;5034018;28;20450;-83
2021/08/27 01:21:54;;;;;;;0.40;0.40;;;13.20;99.90;;;;;;5033428;28;20924;-83
2021/08/27 01:24:21;;;;;;;0.50;0.50;;;13.20;99.90;;;;;;5033603;28;20478;-83
2021/08/27 01:26:52;;;;;;;0.53;0.40;;;13.20;99.90;;;;;;5033470;28;20919;-83
2021/08/27 01:29:29;;;;;;;0.93;0.50;;;13.20;99.90;;;;;;5033537;28;20438;-84
2021/08/27 01:32:03;;;;;;;1.83;0.53;;;13.20;99.90;;;;;;5033558;28;20434;-84
2021/08/27 01:34:38;;;;;;;0.53;0.53;;;13.20;99.90;;;;;;5033203;28;20437;-84
2021/08/27 01:37:09;;;;;;;0.40;0.40;;;13.30;99.90;;;;;;5033477;28;20422;-83
2021/08/27 01:39:40;;;;;;;0.30;0.30;;;13.30;99.90;;;;;;5033424;28;20457;-83
2021/08/27 01:42:10;;;;;;;0.47;0.47;;;13.20;99.90;;;;;;5033047;28;20423;-83
2021/08/27 01:44:38;;;;;;;0.40;0.30;;;13.20;99.90;;;;;;5033373;28;20442;-83
2021/08/27 01:47:07;;;;;;;0.40;0.40;;;13.20;99.90;;;;;;5033084;28;20490;-83
2021/08/27 01:49:36;;;;;;;1.10;0.50;;;13.20;99.90;;;;;;5033089;28;20442;-83
2021/08/27 01:52:07;;;;;;;1.63;0.90;;;13.30;99.90;;;;;;5033064;28;20608;-83
2021/08/27 01:54:35;;;;;;;0.80;0.80;;;13.30;99.90;;;;;;5033137;28;20431;-83
2021/08/27 01:57:03;;;;;;;4.67;0.77;;;13.30;99.90;;;;;;5033226;28;20461;-83
2021/08/27 01:59:34;;;;;;;0.80;0.80;;;13.30;99.90;;;;;;5032900;28;20458;-83
2021/08/27 02:02:01;;;;;;;0.53;0.50;;;13.40;99.90;;;;;;5033207;28;20427;-83
2021/08/27 02:04:32;;;;;;;0.50;0.50;;;13.40;99.90;;;;;;5032896;28;20453;-83
2021/08/27 02:07:00;;;;;;;0.40;0.40;;;13.40;99.90;;;;;;5033166;28;20404;-83
2021/08/27 02:09:27;;;;;;;0.50;0.40;;;13.40;99.90;;;;;;5032863;28;20445;-83
2021/08/27 02:11:54;;;;;;;0.67;0.57;;;13.40;99.90;;;;;;5032940;28;20455;-84
2021/08/27 02:14:22;;;;;;;0.40;0.30;;;13.40;99.90;;;;;;5032777;28;20486;-83
2021/08/27 02:16:49;;;;;;;0.70;0.50;;;13.40;99.90;;;;;;5032817;28;20442;-83
2021/08/27 02:19:16;;;;;;;0.50;0.50;;;13.40;99.90;;;;;;5033050;28;20447;-83
2021/08/27 02:21:46;;;;;;;0.70;0.50;;;13.40;99.90;;;;;;5033046;28;20469;-83
2021/08/27 02:24:19;;;;;;;0.80;0.63;;;13.40;99.90;;;;;;5033202;28;20481;-83
2021/08/27 02:26:47;;;;;;;0.90;0.53;;;13.40;99.90;;;;;;5036598;28;20435;-83
2021/08/27 02:29:17;;;;;;;2.33;0.43;;;13.40;99.90;;;;;;5036981;28;20482;-83
2021/08/27 02:31:45;;;;;;;0.60;0.60;;;13.40;99.90;;;;;;5036791;28;20447;-83
2021/08/27 02:34:14;;;;;;;0.50;0.50;;;13.40;99.90;;;;;;5036556;28;20470;-83
2021/08/27 02:36:42;;;;;;;0.87;0.67;;;13.40;99.90;;;;;;5036655;28;20450;-83
2021/08/27 02:39:09;;;;;;;0.70;0.53;;;13.40;99.90;;;;;;5037087;28;20443;-83
2021/08/27 02:41:38;;;;;;;4.20;1.13;;;13.40;99.90;;;;;;5036788;28;20521;-83
2021/08/27 02:44:05;;;;;;;1.63;0.70;;;13.40;99.90;;;;;;5036461;28;20471;-83
2021/08/27 02:46:32;;;;;;;1.10;0.97;;;13.40;99.90;;;;;;5036515;28;20512;-83
2021/08/27 02:48:59;;;;;;;0.50;0.50;;;13.40;99.90;;;;;;5036523;28;20486;-83
2021/08/27 02:51:31;;;;;;;1.13;0.57;;;13.40;99.90;;;;;;5036353;28;20461;-82
2021/08/27 02:54:02;;;;;;;0.50;0.50;;;13.30;99.90;;;;;;5036309;28;21008;-82
2021/08/27 02:56:33;;;;;;;0.60;0.40;;;13.20;99.90;;;;;;5036399;28;20461;-82
2021/08/27 02:59:04;;;;;;;0.93;0.40;;;13.20;99.90;;;;;;5036054;28;20901;-83
2021/08/27 03:01:37;;;;;;;0.30;0.30;;;13.10;99.90;;;;;;5036258;28;20522;-82
2021/08/27 03:04:09;;;;;;;0.47;0.47;;;13.10;99.90;;;;;;5036198;28;20466;-80
2021/08/27 03:06:45;;;;;;;0.40;0.40;;;13.10;99.90;;;;;;5036047;28;20503;-80
2021/08/27 03:09:11;;;;;;;0.73;0.40;;;13.00;99.90;;;;;;5035772;28;20470;-79
2021/08/27 03:11:44;;;;;;;0.50;0.50;;;13.00;99.90;;;;;;5035905;28;20450;-79
2021/08/27 03:14:18;;;;;;;0.57;0.50;;;12.90;99.90;;;;;;5035340;28;20492;-79
2021/08/27 03:16:48;;;;;;;0.40;0.40;;;12.90;99.90;;;;;;5035944;28;20435;-79
2021/08/27 03:19:20;;;;;;;0.40;0.40;;;12.80;99.90;;;;;;5035789;28;20434;-78
2021/08/27 03:21:49;;;;;;;0.87;0.50;;;12.70;99.90;;;;;;5035853;28;20435;-79
2021/08/27 03:24:21;;;;;;;0.60;0.60;;;12.70;99.90;;;;;;5035614;28;20471;-79
2021/08/27 03:26:52;;;;;;;2.50;0.97;;;12.70;99.90;;;;;;5035767;28;20442;-79
2021/08/27 03:29:22;;;;;;;0.60;0.50;;;12.70;99.90;;;;;;5035621;28;20482;-79
2021/08/27 03:31:49;;;;;;;0.77;0.77;;;12.70;99.90;;;;;;5035308;28;20812;-79
2021/08/27 03:34:16;;;;;;;0.90;0.50;;;12.70;99.90;;;;;;5035201;28;21003;-79
2021/08/27 03:36:44;;;;;;;0.40;0.40;;;12.70;99.90;;;;;;5035382;28;20458;-79
2021/08/27 03:39:11;;;;;;;1.73;1.03;;;12.70;99.90;;;;;;5035481;28;20814;-79
2021/08/27 03:41:41;;;;;;;0.50;0.50;;;12.70;99.90;;;;;;5036037;28;20438;-79
2021/08/27 03:44:09;;;;;;;0.93;0.70;;;12.70;99.90;;;;;;5035297;28;20474;-79
2021/08/27 03:46:38;;;;;;;1.23;0.37;;;12.70;99.90;;;;;;5035326;28;20457;-79
2021/08/27 03:49:05;;;;;;;2.23;0.43;;;12.80;99.90;;;;;;5035174;28;20486;-79
2021/08/27 03:51:32;;;;;;;0.57;0.40;;;12.80;99.90;;;;;;5035038;28;20439;-79
2021/08/27 03:54:00;;;;;;;0.40;0.37;;;12.80;99.90;;;;;;5034861;28;20846;-79
2021/08/27 03:56:28;;;;;;;0.57;0.57;;;12.80;99.90;;;;;;5035084;28;20454;-79
2021/08/27 03:58:56;;;;;;;1.73;0.63;;;12.80;99.90;;;;;;5035160;28;20446;-79
2021/08/27 04:01:23;;;;;;;1.60;0.83;;;12.70;99.90;;;;;;5034980;28;20970;-79
2021/08/27 04:03:51;;;;;;;1.33;0.67;;;12.70;99.90;;;;;;5034931;28;20482;-79
2021/08/27 04:06:18;;;;;;;1.17;0.60;;;12.70;99.90;;;;;;5034843;28;20459;-79
2021/08/27 04:08:45;;;;;;;0.80;0.47;;;12.70;99.90;;;;;;5034447;28;21028;-79
2021/08/27 04:11:14;;;;;;;0.40;0.40;;;12.70;99.90;;;;;;5034485;28;20457;-79
2021/08/27 04:13:42;;;;;;;0.67;0.40;;;12.70;99.90;;;;;;5034778;28;20486;-79
2021/08/27 04:16:09;;;;;;;0.60;0.60;;;12.70;99.90;;;;;;5035064;28;20579;-78
2021/08/27 04:18:36;;;;;;;1.60;0.60;;;12.70;99.90;;;;;;5035301;28;20443;-79
2021/08/27 04:21:04;;;;;;;1.03;1.03;;;12.70;99.90;;;;;;5034694;28;20509;-78
2021/08/27 04:23:31;;;;;;;0.40;0.37;;;12.70;99.90;;;;;;5034605;28;20469;-78
2021/08/27 04:25:58;;;;;;;1.23;0.97;;;12.70;99.90;;;;;;5034622;28;20447;-78
2021/08/27 04:28:25;;;;;;;2.20;0.90;;;12.70;99.90;;;;;;5034080;28;21013;-78
2021/08/27 04:30:52;;;;;;;0.60;0.60;;;12.70;99.90;;;;;;5034494;28;20446;-78
2021/08/27 04:33:19;;;;;;;0.47;0.47;;;12.70;99.90;;;;;;5034387;28;20462;-78
2021/08/27 04:35:46;;;;;;;1.13;0.70;;;12.70;99.90;;;;;;5034435;28;20454;-78
2021/08/27 04:38:14;;;;;;;0.60;0.50;;;12.70;99.90;;;;;;5034122;28;20440;-78
2021/08/27 04:40:40;;;;;;;0.83;0.60;;;12.70;99.90;;;;;;5034025;28;20812;-78
2021/08/27 04:43:07;;;;;;;0.40;0.40;;;12.70;99.90;;;;;;5034247;28;20473;-78
2021/08/27 04:45:34;;;;;;;0.50;0.50;;;12.70;99.90;;;;;;5034162;28;20435;-78
2021/08/27 04:48:01;;;;;;;0.53;0.53;;;12.70;99.90;;;;;;5033103;28;20815;-78
2021/08/27 04:50:28;;;;;;;2.10;0.70;;;12.70;99.90;;;;;;5033883;28;20450;-78
2021/08/27 04:52:55;;;;;;;0.57;0.57;;;12.70;99.90;;;;;;5033646;28;20475;-78
2021/08/27 04:55:23;;;;;;;0.70;0.53;;;12.80;99.90;;;;;;5033985;28;20446;-78
2021/08/27 04:57:50;;;;;;;0.50;0.50;;;12.80;99.90;;;;;;5033732;28;20802;-78
2021/08/27 05:00:17;;;;;;;0.63;0.63;;;12.80;99.90;;;;;;5033938;28;20451;-78
2021/08/27 05:02:44;;;;;;;0.40;0.40;;;12.80;99.90;;;;;;5034555;28;20870;-78
2021/08/27 05:05:12;;;;;;;0.97;0.60;;;12.80;99.90;;;;;;5033933;28;20453;-78
2021/08/27 05:07:39;;;;;;;0.83;0.50;;;12.80;99.90;;;;;;5033806;28;20446;-78
2021/08/27 05:10:06;;;;;;;0.57;0.53;;;12.90;99.90;;;;;;5033401;28;20478;-78
2021/08/27 05:12:35;;;;;;;0.70;0.70;;;12.80;99.90;;;;;;5033518;28;20975;-78
2021/08/27 05:15:02;;;;;;;0.30;0.30;;;12.80;99.90;;;;;;5033556;28;20486;-78
2021/08/27 05:17:28;;;;;;;0.37;0.37;;;12.90;99.90;;;;;;5033756;28;20500;-78
2021/08/27 05:19:55;;;;;;;0.63;0.50;;;12.90;99.90;;;;;;5033541;28;20454;-78
2021/08/27 05:22:22;;;;;;;0.50;0.50;;;12.90;99.90;;;;;;5033583;28;20447;-78
2021/08/27 05:24:49;;;;;;;2.73;1.00;;;12.90;99.90;;;;;;5033632;28;20455;-78
2021/08/27 05:27:16;;;;;;;0.70;0.50;;;12.90;99.90;;;;;;5033333;28;20439;-78
2021/08/27 05:29:44;;;;;;;1.57;0.60;;;12.90;99.90;;;;;;5033427;28;20489;-78
2021/08/27 05:32:10;;;;;;;1.07;0.97;;;12.90;99.90;;;;;;5033135;28;20439;-78
2021/08/27 05:34:37;;;;;;;0.60;0.60;;;12.90;99.90;;;;;;5033335;28;20451;-78
2021/08/27 05:37:05;;;;;;;1.00;0.63;;;12.90;99.90;;;;;;5033104;28;20816;-78
2021/08/27 05:39:31;;;;;;;1.03;0.50;;;12.90;99.90;;;;;;5033246;28;20458;-78
2021/08/27 05:42:00;;;;;;;2.20;0.70;;;13.00;99.90;;;;;;5033289;28;20454;-78
2021/08/27 05:44:27;;;;;;;2.07;0.70;;;13.00;99.90;;;;;;5032997;28;20458;-78
2021/08/27 05:46:55;;;;;;;0.80;0.80;;;13.00;99.90;;;;;;5033334;28;20451;-78
2021/08/27 05:49:22;;;;;;;1.00;0.50;;;13.00;99.90;;;;;;5033109;28;20509;-78
2021/08/27 05:51:50;;;;;;;0.93;0.50;;;13.00;99.90;;;;;;5032873;28;20439;-78
2021/08/27 05:54:17;;;;;;;1.63;0.93;;;13.10;99.90;;;;;;5032862;28;20846;-78
2021/08/27 05:56:45;;;;;;;1.27;0.70;;;13.10;99.90;;;;;;5033248;28;20453;-78
2021/08/27 05:59:11;;;;;;;0.80;0.80;;;13.10;99.90;;;;;;5034063;28;20455;-78
2021/08/27 06:01:38;;;;;;;0.60;0.53;;;13.20;99.90;;;;;;5037294;28;20450;-78
2021/08/27 06:04:06;;;;;;;0.73;0.70;;;13.20;99.90;;;;;;5037183;28;20466;-78
2021/08/27 06:06:34;;;;;;;3.90;0.90;;;13.30;99.90;;;;;;5036906;28;20800;-78
2021/08/27 06:09:00;;;;;;;1.50;0.50;;;13.30;99.90;;;;;;5036684;28;21020;-78
2021/08/27 06:11:27;;;;;;;1.03;0.90;;;13.30;99.90;;;;;;5037074;28;20446;-78
2021/08/27 06:13:54;;;;;;;2.40;0.83;;;13.30;99.90;;;;;;5036772;28;20486;-78
2021/08/27 06:16:21;;;;;;;3.10;1.13;;;13.40;99.90;;;;;;5037025;28;20446;-78
2021/08/27 06:18:47;;;;;;;0.50;0.50;;;13.40;99.90;;;;;;5037046;28;20454;-79
2021/08/27 06:21:15;;;;;;;0.80;0.60;;;13.30;99.90;;;;;;5036847;28;20457;-79
2021/08/27 06:23:42;;;;;;;5.13;1.20;;;13.30;99.90;;;;;;5036881;28;20470;-79
2021/08/27 06:26:09;;;;;;;0.93;0.60;;;13.30;99.90;;;;;;5037160;28;20431;-79
2021/08/27 06:28:36;;;;;;;3.00;1.13;;;13.30;99.90;;;;;;5036852;28;20481;-78
2021/08/27 06:31:02;;;;;;;1.23;0.70;;;13.40;99.90;;;;;;5036802;28;20449;-79
2021/08/27 06:33:31;;;;;;;1.20;1.10;;;13.40;99.90;;;;;;5036619;28;20451;-79
2021/08/27 06:35:58;;;;;;;1.13;0.73;;;13.40;99.90;;;;;;5036718;28;20440;-79
2021/08/27 06:38:26;;;;;;;1.33;0.60;;;13.40;99.90;;;;;;5036714;28;20429;-79
2021/08/27 06:40:57;;;;;;;0.70;0.70;;;13.50;99.90;;;;;;5036656;28;20434;-79
2021/08/27 06:43:26;;;;;;;3.23;1.47;;;13.50;99.90;;;;;;5036557;28;20509;-79
2021/08/27 06:45:54;;;;;;;1.30;1.03;;;13.50;99.90;;;;;;5036645;28;20470;-79
2021/08/27 06:48:20;;;;;;;2.17;1.63;;;13.50;99.90;;;;;;5036130;28;20965;-79
2021/08/27 06:50:47;;;;;;;2.07;1.00;;;13.60;99.90;;;;;;5036427;28;20446;-79
2021/08/27 06:53:14;;;;;;;0.70;0.70;;;13.70;99.90;;;;;;5035947;28;20805;-79
2021/08/27 06:55:43;;;;;;;1.37;0.90;;;13.70;99.90;;;;;;5036290;28;20449;-79
2021/08/27 06:58:10;;;;;;;0.80;0.77;;;13.80;99.90;;;;;;5035992;28;20446;-79
2021/08/27 07:00:37;;;;;;;1.67;1.07;;;13.80;99.90;;;;;;5035888;28;20787;-79
2021/08/27 07:03:04;;;;;;;3.33;0.90;;;14.00;99.90;;;;;;5035812;28;20812;-78
2021/08/27 07:05:31;;;;;;;0.63;0.53;;;14.20;99.90;;;;;;5036109;28;20438;-79
2021/08/27 07:07:58;;;;;;;0.50;0.50;;;14.30;99.90;;;;;;5036117;28;20820;-79
2021/08/27 07:10:26;;;;;;;1.33;1.00;;;14.40;99.90;;;;;;5035660;28;20512;-79
2021/08/27 07:12:54;;;;;;;0.93;0.93;;;14.50;99.90;;;;;;5035499;28;21015;-79
2021/08/27 07:15:21;;;;;;;1.07;0.93;;;14.50;99.90;;;;;;5035765;28;20544;-79
2021/08/27 07:17:48;;;;;;;0.60;0.57;;;14.50;99.90;;;;;;5036222;28;20442;-79
2021/08/27 07:20:15;;;;;;;0.73;0.60;;;14.50;99.90;;;;;;5035580;28;20439;-78
2021/08/27 07:22:43;;;;;;;0.93;0.60;;;14.60;99.90;;;;;;5035345;28;20986;-78
2021/08/27 07:25:11;;;;;;;1.00;0.77;;;14.60;99.90;;;;;;5035964;28;20438;-79
2021/08/27 07:27:39;;;;;;;0.60;0.60;;;14.70;99.90;;;;;;5035844;28;20458;-79
2021/08/27 07:30:09;;;;;;;0.60;0.60;;;14.80;99.90;;;;;;5035303;28;20474;-79
2021/08/27 07:32:36;;;;;;;1.03;1.03;;;14.90;99.90;;;;;;5035620;28;20466;-79
2021/08/27 07:35:03;;;;;;;0.60;0.60;;;15.00;99.90;;;;;;5036018;28;20969;-80
2021/08/27 07:37:30;;;;;;;1.10;0.90;;;15.20;99.90;;;;;;5035218;28;20439;-79
2021/08/27 07:39:57;;;;;;;1.00;0.80;;;15.40;99.90;;;;;;5035250;28;20806;-81
2021/08/27 07:42:24;;;;;;;0.60;0.60;;;15.70;99.90;;;;;;5035789;28;20470;-80
2021/08/27 07:44:51;;;;;;;12.70;0.80;;;15.80;99.90;;;;;;5035444;28;20439;-80
2021/08/27 07:47:19;;;;;;;0.73;0.73;;;15.90;99.90;;;;;;5035369;28;20439;-80
2021/08/27 07:49:46;;;;;;;0.50;0.50;;;15.80;99.90;;;;;;5035278;28;20470;-80
2021/08/27 07:52:13;;;;;;;0.73;0.50;;;15.90;99.90;;;;;;5035040;28;20415;-80
2021/08/27 07:54:39;;;;;;;1.37;0.70;;;16.00;99.90;;;;;;5035203;28;20420;-80
2021/08/27 07:57:06;;;;;;;0.80;0.80;;;16.20;99.90;;;;;;5035625;28;20470;-81
2021/08/27 07:59:33;;;;;;;0.40;0.40;;;16.40;99.90;;;;;;5035314;28;20433;-81
2021/08/27 08:02:00;;;;;;;0.50;0.47;;;16.40;99.90;;;;;;5034897;28;20926;-81
2021/08/27 08:04:28;;;;;;;0.53;0.53;;;16.50;99.90;;;;;;5035030;28;20471;-81
2021/08/27 08:06:55;;;;;;;0.60;0.60;;;16.50;99.90;;;;;;5035102;28;20419;-81
2021/08/27 08:09:22;;;;;;;0.60;0.50;;;16.50;99.90;;;;;;5034688;28;20473;-81
2021/08/27 08:11:48;;;;;;;3.70;0.83;;;16.50;99.90;;;;;;5034634;28;20903;-81
2021/08/27 08:14:16;;;;;;;5.33;0.77;;;16.60;99.90;;;;;;5034506;28;20486;-82
2021/08/27 08:16:43;;;;;;;0.50;0.50;;;16.80;99.90;;;;;;5034740;28;20866;-82
2021/08/27 08:19:10;;;;;;;0.50;0.50;;;16.90;99.90;;;;;;5034636;28;20435;-82
2021/08/27 08:21:39;;;;;;;0.50;0.40;;;16.90;99.90;;;;;;5034832;28;20438;-82
2021/08/27 08:24:06;;;;;;;2.40;0.60;;;17.10;99.90;;;;;;5033494;28;20451;-83
2021/08/27 08:26:33;;;;;;;0.73;0.50;;;17.20;99.90;;;;;;5034384;28;20434;-82
2021/08/27 08:29:00;;;;;;;0.80;0.70;;;17.10;99.90;;;;;;5034780;28;20427;-82
2021/08/27 08:31:28;;;;;;;3.83;0.80;;;16.90;99.90;;;;;;5034543;28;20442;-82
2021/08/27 08:33:56;;;;;;;0.50;0.50;;;16.80;99.90;;;;;;5034360;28;20475;-81
2021/08/27 08:36:23;;;;;;;4.00;0.57;;;16.70;99.90;;;;;;5034150;28;20779;-83
2021/08/27 08:38:52;;;;;;;0.63;0.63;;;16.80;99.90;;;;;;5034318;28;20430;-83
2021/08/27 08:41:20;;;;;;;0.43;0.43;;;17.00;99.90;;;;;;5034081;28;20431;-83
2021/08/27 08:43:48;;;;;;;1.23;0.80;;;17.20;99.90;;;;;;5034298;28;20521;-83
2021/08/27 08:46:16;;;;;;;0.43;0.40;;;17.40;99.90;;;;;;5034630;28;20449;-83
2021/08/27 08:48:46;;;;;;;0.50;0.50;;;17.40;99.90;;;;;;5034199;28;20431;-83
2021/08/27 08:51:14;;;;;;;0.80;0.40;;;17.20;99.90;;;;;;5034193;28;20521;-84
2021/08/27 08:53:46;;;;;;;0.67;0.60;;;17.20;99.90;;;;;;5034182;28;20482;-84
2021/08/27 08:56:14;;;;;;;0.40;0.40;;;17.40;99.90;;;;;;5034334;28;20431;-85
2021/08/27 08:58:40;;;;;;;1.00;0.70;;;17.40;99.90;;;;;;5034166;28;20773;-84
2021/08/27 09:01:12;;;;;;;1.07;0.60;;;17.40;99.90;;;;;;5034104;28;20455;-84
2021/08/27 09:03:39;;;;;;;0.40;0.40;;;17.40;99.90;;;;;;5035151;28;20474;-86
2021/08/27 09:06:07;;;;;;;0.77;0.77;;;17.20;99.90;;;;;;5034166;28;20415;-83
2021/08/27 09:08:37;;;;;;;0.40;0.40;;;17.00;99.90;;;;;;5034321;28;20419;-83
2021/08/27 09:11:16;;;;;;;0.63;0.50;;;16.80;99.90;;;;;;5033932;28;20521;-84
2021/08/27 09:13:44;;;;;;;0.43;0.43;;;16.60;99.90;;;;;;5033580;28;20486;-84
2021/08/27 09:16:11;;;;;;;1.23;0.70;;;16.70;99.90;;;;;;5035095;28;20442;-84
2021/08/27 09:18:39;;;;;;;0.47;0.47;;;17.10;99.90;;;;;;5033583;28;20418;-84
2021/08/27 09:21:31;;;;;;;0.40;0.40;;;17.60;99.90;;;;;;5033568;28;20423;-84
2021/08/27 09:24:19;;;;;;;0.50;0.50;;;18.30;99.90;;;;;;5033623;28;20466;-84
2021/08/27 09:26:50;;;;;;;0.60;0.50;;;18.80;99.90;;;;;;5033359;28;20534;-84
2021/08/27 09:29:40;;;;;;;0.50;0.40;;;19.20;99.90;;;;;;5033562;28;20772;-83
2021/08/27 09:32:19;;;;;;;0.40;0.40;;;19.30;99.90;;;;;;5033242;28;20415;-84
2021/08/27 09:34:47;;;;;;;0.40;0.40;;;19.30;99.90;;;;;;5032974;28;20530;-84
2021/08/27 09:37:14;;;;;;;0.53;0.53;;;19.10;99.90;;;;;;5033560;28;20435;-83
2021/08/27 09:39:40;;;;;;;0.50;0.50;;;19.10;99.90;;;;;;5033212;28;20422;-84
2021/08/27 09:42:09;;;;;;;0.50;0.50;;;19.00;99.90;;;;;;5033411;28;20438;-84
2021/08/27 09:44:36;;;;;;;0.67;0.67;;;18.90;99.90;;;;;;5033390;28;20538;-83
2021/08/27 09:47:07;;;;;;;2.57;0.60;;;18.60;99.90;;;;;;5033146;28;20419;-82
2021/08/27 09:49:36;;;;;;;0.53;0.53;;;18.30;99.90;;;;;;5032951;28;20430;-83
2021/08/27 09:52:05;;;;;;;0.50;0.50;;;17.90;99.90;;;;;;5033196;28;20541;-83
2021/08/27 09:54:34;;;;;;;0.57;0.47;;;17.60;99.90;;;;;;5032999;28;20431;-83
2021/08/27 09:57:02;;;;;;;0.50;0.50;;;17.60;99.90;;;;;;5033723;28;20470;-84
2021/08/27 09:59:38;;;;;;;0.73;0.40;;;17.70;99.90;;;;;;5033360;28;20891;-83
2021/08/27 10:02:06;;;;;;;0.60;0.60;;;17.70;99.90;;;;;;5033150;28;20445;-84
2021/08/27 10:04:33;;;;;;;0.50;0.50;;;17.60;99.90;;;;;;5033043;28;20462;-84
2021/08/27 10:07:01;;;;;;;0.70;0.50;;;17.50;99.90;;;;;;5034307;28;20434;-83
2021/08/27 10:09:45;;;;;;;1.03;0.50;;;17.60;99.90;;;;;;5037355;28;20435;-84
2021/08/27 10:12:13;;;;;;;0.80;0.50;;;17.70;99.90;;;;;;5033085;28;20529;-82
2021/08/27 10:14:41;;;;;;;0.63;0.40;;;17.90;99.90;;;;;;5032669;28;20489;-83
2021/08/27 10:17:09;;;;;;;0.60;0.60;;;17.90;99.90;;;;;;5032785;28;20419;-83
2021/08/27 10:19:36;;;;;;;1.53;0.80;;;17.70;99.90;;;;;;5033102;28;20445;-83
2021/08/27 10:22:03;;;;;;;0.63;0.50;;;17.50;99.90;;;;;;5033077;28;20442;-83
2021/08/27 10:24:30;;;;;;;0.40;0.40;;;17.30;99.90;;;;;;5032781;28;20465;-83
2021/08/27 10:26:57;;;;;;;0.73;0.60;;;17.20;99.90;;;;;;5032738;28;20806;-83
2021/08/27 10:29:25;;;;;;;0.60;0.50;;;17.10;99.90;;;;;;5032995;28;20465;-83
2021/08/27 10:31:54;;;;;;;0.80;0.57;;;17.20;99.90;;;;;;5032894;28;20471;-83
2021/08/27 10:34:39;;;;;;;0.40;0.40;;;17.30;99.90;;;;;;5033076;28;20501;-83
2021/08/27 10:37:07;;;;;;;0.50;0.50;;;17.50;99.90;;;;;;5032860;28;20416;-83
2021/08/27 10:39:46;;;;;;;0.43;0.43;;;17.60;99.90;;;;;;5032726;28;20767;-83
2021/08/27 10:42:47;;;;;;;0.43;0.43;;;17.50;99.90;;;;;;5033237;28;20451;-83
2021/08/27 10:45:14;;;;;;;0.40;0.30;;;17.50;99.90;;;;;;5032848;28;20435;-83
2021/08/27 10:48:11;;;;;;;0.40;0.30;;;17.30;99.90;;;;;;5035606;28;20965;-83
2021/08/27 10:50:40;;;;;;;0.60;0.33;;;17.20;99.90;;;;;;5036386;28;20493;-83
2021/08/27 10:53:29;;;;;;;0.50;0.40;;;17.00;99.90;;;;;;5036422;28;20471;-83
2021/08/27 10:55:57;;;;;;;0.63;0.50;;;17.20;99.90;;;;;;5036176;28;20478;-83
2021/08/27 10:58:40;;;;;;;0.40;0.30;;;17.60;99.90;;;;;;5036377;28;20423;-83
2021/08/27 11:01:07;;;;;;;0.60;0.30;;;17.90;99.90;;;;;;5036363;28;20470;-84
2021/08/27 11:04:02;;;;;;;0.40;0.33;;;18.10;99.90;;;;;;5036066;28;20478;-84
2021/08/27 11:06:29;;;;;;;0.60;0.50;;;18.50;99.90;;;;;;5036000;28;20898;-83
2021/08/27 11:09:14;;;;;;;0.80;0.60;;;18.70;99.90;;;;;;5036162;28;20435;-84
2021/08/27 11:11:41;;;;;;;0.40;0.40;;;19.00;99.90;;;;;;5035946;28;20471;-84
2021/08/27 11:14:16;;;;;;;0.40;0.40;;;19.10;99.90;;;;;;5035643;28;20478;-84
2021/08/27 11:16:43;;;;;;;0.47;0.47;;;19.10;99.90;;;;;;5035720;28;20899;-83
2021/08/27 11:19:26;;;;;;;0.40;0.40;;;19.00;99.90;;;;;;5036017;28;20438;-83
2021/08/27 11:21:56;;;;;;;0.40;0.40;;;18.80;99.90;;;;;;5036283;28;20472;-83
2021/08/27 11:24:26;;;;;;;2.60;0.73;;;18.60;99.90;;;;;;5035807;28;20478;-83
2021/08/27 11:26:59;;;;;;;0.40;0.30;;;18.40;99.90;;;;;;5035837;28;20434;-83
2021/08/27 11:29:32;;;;;;;1.80;0.60;;;18.30;99.90;;;;;;5035514;28;20925;-83
2021/08/27 11:32:07;;;;;;;0.63;0.63;;;18.10;99.90;;;;;;5035324;28;20985;-83
2021/08/27 11:34:51;;;;;;;0.40;0.40;;;17.80;99.90;;;;;;5035392;28;20898;-83
2021/08/27 11:37:18;;;;;;;1.60;0.67;;;17.70;99.90;;;;;;5035634;28;20427;-83
2021/08/27 11:39:47;;;;;;;1.37;0.40;;;17.60;99.90;;;;;;5035314;28;20419;-83
2021/08/27 11:42:14;;;;;;;0.73;0.40;;;17.50;99.90;;;;;;5035504;28;20466;-84
2021/08/27 11:44:43;;;;;;;0.40;0.40;;;17.40;99.90;;;;;;5035484;28;20471;-83
2021/08/27 11:47:12;;;;;;;0.47;0.47;;;17.40;99.90;;;;;;5035191;28;20910;-83
2021/08/27 11:49:46;;;;;;;0.40;0.30;;;17.40;99.90;;;;;;5037726;28;20427;-84
2021/08/27 11:52:21;;;;;;;0.53;0.50;;;17.70;99.90;;;;;;5035032;28;21004;-84
2021/08/27 11:54:48;;;;;;;0.50;0.47;;;18.00;99.90;;;;;;5035444;28;20445;-83
2021/08/27 11:57:17;;;;;;;0.77;0.60;;;18.20;99.90;;;;;;5034746;28;20420;-84
2021/08/27 11:59:44;;;;;;;0.50;0.40;;;18.30;99.90;;;;;;5034974;28;20938;-84
2021/08/27 12:02:19;;;;;;;0.40;0.40;;;18.40;99.90;;;;;;5035199;28;20439;-84
2021/08/27 12:04:55;;;;;;;0.60;0.43;;;18.40;99.90;;;;;;5034957;28;20429;-84
2021/08/27 12:07:27;;;;;;;0.50;0.50;;;18.50;99.90;;;;;;5034776;28;20906;-85
2021/08/27 12:10:05;;;;;;;0.50;0.50;;;18.40;99.90;;;;;;5034667;28;20477;-83
2021/08/27 12:12:33;;;;;;;0.47;0.47;;;18.40;99.90;;;;;;5035309;28;20458;-84
2021/08/27 12:15:01;;;;;;;0.60;0.40;;;18.40;99.90;;;;;;5034591;28;20478;-83
2021/08/27 12:17:29;;;;;;;0.43;0.43;;;18.40;99.90;;;;;;5035575;28;20546;-83
2021/08/27 12:19:57;;;;;;;0.40;0.40;;;18.30;99.90;;;;;;5034816;28;20437;-82
2021/08/27 12:22:29;;;;;;;1.77;0.60;;;18.40;99.90;;;;;;5034747;28;20431;-83
2021/08/27 12:24:56;;;;;;;0.40;0.40;;;18.30;99.90;;;;;;5034683;28;20448;-83
2021/08/27 12:27:25;;;;;;;0.70;0.70;;;18.30;99.90;;;;;;5034715;28;20435;-83
2021/08/27 12:30:10;;;;;;;0.30;0.30;;;18.20;99.90;;;;;;5034673;28;20442;-82
2021/08/27 12:32:37;;;;;;;0.60;0.60;;;18.20;99.90;;;;;;5034198;28;20983;-82
2021/08/27 12:35:07;;;;;;;0.50;0.40;;;18.10;99.90;;;;;;5034539;28;20769;-82
2021/08/27 12:37:35;;;;;;;0.50;0.50;;;18.10;99.90;;;;;;5034452;28;20431;-82
2021/08/27 12:40:07;;;;;;;2.00;0.40;;;18.00;99.90;;;;;;5034041;28;20442;-81
2021/08/27 12:42:34;;;;;;;0.83;0.70;;;17.90;99.90;;;;;;5033890;28;20509;-81
2021/08/27 12:45:04;;;;;;;0.60;0.60;;;17.90;99.90;;;;;;5034363;28;20427;-81
2021/08/27 12:47:36;;;;;;;0.63;0.63;;;17.70;99.90;;;;;;5034326;28;20819;-81
2021/08/27 12:50:07;;;;;;;1.07;0.60;;;17.70;99.90;;;;;;5034204;28;20431;-82
2021/08/27 12:52:35;;;;;;;0.43;0.40;;;17.60;99.90;;;;;;5033939;28;20495;-81
2021/08/27 12:55:02;;;;;;;0.40;0.40;;;17.70;99.90;;;;;;5034100;28;20431;-81
2021/08/27 12:57:28;;;;;;;0.50;0.40;;;17.60;99.90;;;;;;5034059;28;20447;-81
2021/08/27 12:59:58;;;;;;;0.50;0.40;;;17.50;99.90;;;;;;5034161;28;20411;-82